sensor_id;sensor_type;location;lat;lon;timestamp;temperature;humidity
12053;DHT22;6087;48.982;12.064;2022-07-06T00:02:19;20.50;39.70
12053;DHT22;6087;48.982;12.064;2022-07-06T00:04:46;20.50;39.80
12053;DHT22;6087;48.982;12.064;2022-07-06T00:07:13;20.50;39.80
12053;DHT22;6087;48.982;12.064;2022-07-06T00:09:42;20.40;40.10
12053;DHT22;6087;48.982;12.064;2022-07-06T00:12:09;20.40;40.90
12053;DHT22;6087;48.982;12.064;2022-07-06T00:14:36;20.40;40.30
12053;DHT22;6087;48.982;12.064;2022-07-06T00:17:03;20.40;40.50
12053;DHT22;6087;48.982;12.064;2022-07-06T00:19:30;20.40;40.40
12053;DHT22;6087;48.982;12.064;2022-07-06T00:21:57;20.30;40.40
12053;DHT22;6087;48.982;12.064;2022-07-06T00:24:24;20.30;40.60
12053;DHT22;6087;48.982;12.064;2022-07-06T00:26:52;20.30;40.40
12053;DHT22;6087;48.982;12.064;2022-07-06T00:29:19;20.30;40.60
12053;DHT22;6087;48.982;12.064;2022-07-06T00:31:46;20.30;40.70
12053;DHT22;6087;48.982;12.064;2022-07-06T00:34:13;20.30;40.40
12053;DHT22;6087;48.982;12.064;2022-07-06T00:36:40;20.30;40.80
12053;DHT22;6087;48.982;12.064;2022-07-06T00:39:07;20.30;40.90
12053;DHT22;6087;48.982;12.064;2022-07-06T00:41:34;20.30;41.00
12053;DHT22;6087;48.982;12.064;2022-07-06T00:44:07;20.30;41.40
12053;DHT22;6087;48.982;12.064;2022-07-06T00:46:35;20.20;41.20
12053;DHT22;6087;48.982;12.064;2022-07-06T00:49:02;20.10;41.40
12053;DHT22;6087;48.982;12.064;2022-07-06T00:51:31;20.10;41.50
12053;DHT22;6087;48.982;12.064;2022-07-06T00:54:00;20.10;41.70
12053;DHT22;6087;48.982;12.064;2022-07-06T00:56:30;20.10;41.80
12053;DHT22;6087;48.982;12.064;2022-07-06T00:58:57;20.00;42.00
12053;DHT22;6087;48.982;12.064;2022-07-06T01:01:26;20.00;41.90
12053;DHT22;6087;48.982;12.064;2022-07-06T01:03:53;20.00;42.20
12053;DHT22;6087;48.982;12.064;2022-07-06T01:06:20;20.10;42.40
12053;DHT22;6087;48.982;12.064;2022-07-06T01:08:47;20.00;42.30
12053;DHT22;6087;48.982;12.064;2022-07-06T01:11:14;20.00;42.80
12053;DHT22;6087;48.982;12.064;2022-07-06T01:13:42;20.00;42.90
12053;DHT22;6087;48.982;12.064;2022-07-06T01:16:09;19.90;43.00
12053;DHT22;6087;48.982;12.064;2022-07-06T01:18:37;19.90;43.50
12053;DHT22;6087;48.982;12.064;2022-07-06T01:21:08;19.80;43.60
12053;DHT22;6087;48.982;12.064;2022-07-06T01:23:39;19.70;44.00
12053;DHT22;6087;48.982;12.064;2022-07-06T01:26:08;19.60;44.00
12053;DHT22;6087;48.982;12.064;2022-07-06T01:28:35;19.60;44.00
12053;DHT22;6087;48.982;12.064;2022-07-06T01:31:02;19.60;44.10
12053;DHT22;6087;48.982;12.064;2022-07-06T01:33:29;19.60;44.20
12053;DHT22;6087;48.982;12.064;2022-07-06T01:35:55;19.50;44.60
12053;DHT22;6087;48.982;12.064;2022-07-06T01:38:24;19.40;45.50
12053;DHT22;6087;48.982;12.064;2022-07-06T01:44:12;19.30;45.20
12053;DHT22;6087;48.982;12.064;2022-07-06T01:46:39;19.30;45.50
12053;DHT22;6087;48.982;12.064;2022-07-06T01:49:06;19.30;45.70
12053;DHT22;6087;48.982;12.064;2022-07-06T01:51:33;19.20;45.80
12053;DHT22;6087;48.982;12.064;2022-07-06T01:54:01;19.10;46.20
12053;DHT22;6087;48.982;12.064;2022-07-06T01:56:28;19.10;46.60
12053;DHT22;6087;48.982;12.064;2022-07-06T01:58:55;19.00;46.70
12053;DHT22;6087;48.982;12.064;2022-07-06T02:01:22;18.90;47.10
12053;DHT22;6087;48.982;12.064;2022-07-06T02:03:49;18.90;47.90
12053;DHT22;6087;48.982;12.064;2022-07-06T02:06:16;18.90;48.00
12053;DHT22;6087;48.982;12.064;2022-07-06T02:08:43;18.80;48.30
12053;DHT22;6087;48.982;12.064;2022-07-06T02:11:11;18.80;48.50
12053;DHT22;6087;48.982;12.064;2022-07-06T02:13:38;18.80;48.60
12053;DHT22;6087;48.982;12.064;2022-07-06T02:16:06;18.70;49.40
12053;DHT22;6087;48.982;12.064;2022-07-06T02:18:32;18.70;49.50
12053;DHT22;6087;48.982;12.064;2022-07-06T02:20:59;18.60;49.80
12053;DHT22;6087;48.982;12.064;2022-07-06T02:23:27;18.60;50.00
12053;DHT22;6087;48.982;12.064;2022-07-06T02:25:54;18.50;50.40
12053;DHT22;6087;48.982;12.064;2022-07-06T02:28:22;18.50;51.00
12053;DHT22;6087;48.982;12.064;2022-07-06T02:30:49;18.40;51.40
12053;DHT22;6087;48.982;12.064;2022-07-06T02:33:16;18.50;51.70
12053;DHT22;6087;48.982;12.064;2022-07-06T02:35:43;18.40;52.30
12053;DHT22;6087;48.982;12.064;2022-07-06T02:38:10;18.40;52.60
12053;DHT22;6087;48.982;12.064;2022-07-06T02:40:37;18.40;53.10
12053;DHT22;6087;48.982;12.064;2022-07-06T02:43:04;18.30;53.70
12053;DHT22;6087;48.982;12.064;2022-07-06T02:45:32;18.30;53.80
12053;DHT22;6087;48.982;12.064;2022-07-06T02:47:59;18.20;54.00
12053;DHT22;6087;48.982;12.064;2022-07-06T02:50:26;18.30;54.00
12053;DHT22;6087;48.982;12.064;2022-07-06T02:52:53;18.30;54.10
12053;DHT22;6087;48.982;12.064;2022-07-06T02:55:21;18.30;55.30
12053;DHT22;6087;48.982;12.064;2022-07-06T02:57:48;18.30;55.00
12053;DHT22;6087;48.982;12.064;2022-07-06T03:00:15;18.30;55.10
12053;DHT22;6087;48.982;12.064;2022-07-06T03:02:43;18.30;55.20
12053;DHT22;6087;48.982;12.064;2022-07-06T03:05:10;18.30;55.70
12053;DHT22;6087;48.982;12.064;2022-07-06T03:07:37;18.30;57.20
12053;DHT22;6087;48.982;12.064;2022-07-06T03:10:05;18.20;58.50
12053;DHT22;6087;48.982;12.064;2022-07-06T03:12:33;18.10;59.50
12053;DHT22;6087;48.982;12.064;2022-07-06T03:14:59;18.10;61.20
12053;DHT22;6087;48.982;12.064;2022-07-06T03:17:26;18.00;61.30
12053;DHT22;6087;48.982;12.064;2022-07-06T03:19:55;17.90;61.30
12053;DHT22;6087;48.982;12.064;2022-07-06T03:22:21;17.80;61.30
12053;DHT22;6087;48.982;12.064;2022-07-06T03:24:48;17.80;60.40
12053;DHT22;6087;48.982;12.064;2022-07-06T03:27:15;17.80;60.60
12053;DHT22;6087;48.982;12.064;2022-07-06T03:29:42;17.80;60.90
12053;DHT22;6087;48.982;12.064;2022-07-06T03:32:09;17.70;61.20
12053;DHT22;6087;48.982;12.064;2022-07-06T03:34:36;17.70;61.70
12053;DHT22;6087;48.982;12.064;2022-07-06T03:37:04;17.70;62.00
12053;DHT22;6087;48.982;12.064;2022-07-06T03:39:32;17.70;62.50
12053;DHT22;6087;48.982;12.064;2022-07-06T03:41:59;17.70;62.60
12053;DHT22;6087;48.982;12.064;2022-07-06T03:44:26;17.70;63.20
12053;DHT22;6087;48.982;12.064;2022-07-06T03:46:53;17.70;63.80
12053;DHT22;6087;48.982;12.064;2022-07-06T03:49:21;17.70;63.90
12053;DHT22;6087;48.982;12.064;2022-07-06T03:51:47;17.70;64.50
12053;DHT22;6087;48.982;12.064;2022-07-06T03:54:16;17.70;64.80
12053;DHT22;6087;48.982;12.064;2022-07-06T03:56:43;17.70;65.50
12053;DHT22;6087;48.982;12.064;2022-07-06T03:59:13;17.60;66.30
12053;DHT22;6087;48.982;12.064;2022-07-06T04:01:40;17.60;66.50
12053;DHT22;6087;48.982;12.064;2022-07-06T04:04:07;17.50;67.10
12053;DHT22;6087;48.982;12.064;2022-07-06T04:06:34;17.50;67.20
12053;DHT22;6087;48.982;12.064;2022-07-06T04:09:01;17.60;67.40
12053;DHT22;6087;48.982;12.064;2022-07-06T04:11:29;17.60;67.60
12053;DHT22;6087;48.982;12.064;2022-07-06T04:13:57;17.60;67.90
12053;DHT22;6087;48.982;12.064;2022-07-06T04:16:24;17.70;68.50
12053;DHT22;6087;48.982;12.064;2022-07-06T04:18:51;17.70;69.60
12053;DHT22;6087;48.982;12.064;2022-07-06T04:21:18;17.60;69.80
12053;DHT22;6087;48.982;12.064;2022-07-06T04:23:45;17.80;69.80
12053;DHT22;6087;48.982;12.064;2022-07-06T04:26:11;17.90;70.00
12053;DHT22;6087;48.982;12.064;2022-07-06T04:28:40;17.90;70.50
12053;DHT22;6087;48.982;12.064;2022-07-06T04:31:07;18.00;70.60
12053;DHT22;6087;48.982;12.064;2022-07-06T04:33:34;18.00;70.30
12053;DHT22;6087;48.982;12.064;2022-07-06T04:36:01;18.10;71.20
12053;DHT22;6087;48.982;12.064;2022-07-06T04:38:28;18.10;71.80
12053;DHT22;6087;48.982;12.064;2022-07-06T04:40:55;18.10;71.80
12053;DHT22;6087;48.982;12.064;2022-07-06T04:43:21;18.10;72.70
12053;DHT22;6087;48.982;12.064;2022-07-06T04:45:50;18.20;72.90
12053;DHT22;6087;48.982;12.064;2022-07-06T04:48:17;18.20;73.80
12053;DHT22;6087;48.982;12.064;2022-07-06T04:50:44;18.30;74.30
12053;DHT22;6087;48.982;12.064;2022-07-06T04:53:10;18.30;75.00
12053;DHT22;6087;48.982;12.064;2022-07-06T04:55:38;18.30;75.80
12053;DHT22;6087;48.982;12.064;2022-07-06T04:58:05;18.40;75.60
12053;DHT22;6087;48.982;12.064;2022-07-06T05:00:32;18.40;76.40
12053;DHT22;6087;48.982;12.064;2022-07-06T05:03:00;18.40;77.00
12053;DHT22;6087;48.982;12.064;2022-07-06T05:05:27;18.40;76.80
12053;DHT22;6087;48.982;12.064;2022-07-06T05:07:54;18.40;77.00
12053;DHT22;6087;48.982;12.064;2022-07-06T05:10:21;18.40;77.10
12053;DHT22;6087;48.982;12.064;2022-07-06T05:12:48;18.50;77.10
12053;DHT22;6087;48.982;12.064;2022-07-06T05:15:15;18.50;78.50
12053;DHT22;6087;48.982;12.064;2022-07-06T05:17:41;18.60;77.80
12053;DHT22;6087;48.982;12.064;2022-07-06T05:20:10;18.60;77.70
12053;DHT22;6087;48.982;12.064;2022-07-06T05:22:37;18.60;77.10
12053;DHT22;6087;48.982;12.064;2022-07-06T05:25:04;18.70;77.80
12053;DHT22;6087;48.982;12.064;2022-07-06T05:27:31;18.70;77.30
12053;DHT22;6087;48.982;12.064;2022-07-06T05:29:58;18.80;77.50
12053;DHT22;6087;48.982;12.064;2022-07-06T05:32:25;18.90;77.30
12053;DHT22;6087;48.982;12.064;2022-07-06T05:34:52;18.90;77.50
12053;DHT22;6087;48.982;12.064;2022-07-06T05:37:20;19.00;76.80
12053;DHT22;6087;48.982;12.064;2022-07-06T05:39:47;19.00;77.30
12053;DHT22;6087;48.982;12.064;2022-07-06T05:42:15;19.10;77.10
12053;DHT22;6087;48.982;12.064;2022-07-06T05:44:42;19.20;77.60
12053;DHT22;6087;48.982;12.064;2022-07-06T05:47:09;19.20;77.80
12053;DHT22;6087;48.982;12.064;2022-07-06T05:49:55;19.30;77.40
12053;DHT22;6087;48.982;12.064;2022-07-06T05:52:43;19.20;77.40
12053;DHT22;6087;48.982;12.064;2022-07-06T05:55:11;19.30;77.10
12053;DHT22;6087;48.982;12.064;2022-07-06T05:57:39;19.30;77.20
12053;DHT22;6087;48.982;12.064;2022-07-06T06:00:07;19.40;77.40
12053;DHT22;6087;48.982;12.064;2022-07-06T06:02:38;19.40;77.70
12053;DHT22;6087;48.982;12.064;2022-07-06T06:05:07;19.40;78.40
12053;DHT22;6087;48.982;12.064;2022-07-06T06:07:34;19.40;78.40
12053;DHT22;6087;48.982;12.064;2022-07-06T06:10:05;19.40;77.20
12053;DHT22;6087;48.982;12.064;2022-07-06T06:12:33;19.40;76.40
12053;DHT22;6087;48.982;12.064;2022-07-06T06:15:00;19.40;76.90
12053;DHT22;6087;48.982;12.064;2022-07-06T06:17:27;19.40;77.10
12053;DHT22;6087;48.982;12.064;2022-07-06T06:19:54;19.40;77.60
12053;DHT22;6087;48.982;12.064;2022-07-06T06:22:21;19.40;77.50
12053;DHT22;6087;48.982;12.064;2022-07-06T06:24:48;19.40;78.20
12053;DHT22;6087;48.982;12.064;2022-07-06T06:27:16;19.40;78.10
12053;DHT22;6087;48.982;12.064;2022-07-06T06:29:43;19.50;79.50
12053;DHT22;6087;48.982;12.064;2022-07-06T06:32:11;19.50;78.80
12053;DHT22;6087;48.982;12.064;2022-07-06T06:34:38;19.60;79.50
12053;DHT22;6087;48.982;12.064;2022-07-06T06:37:05;19.70;80.00
12053;DHT22;6087;48.982;12.064;2022-07-06T06:39:32;19.70;79.30
12053;DHT22;6087;48.982;12.064;2022-07-06T06:41:59;19.80;79.00
12053;DHT22;6087;48.982;12.064;2022-07-06T06:44:28;19.80;78.60
12053;DHT22;6087;48.982;12.064;2022-07-06T06:46:55;19.90;79.70
12053;DHT22;6087;48.982;12.064;2022-07-06T06:49:21;20.00;79.80
12053;DHT22;6087;48.982;12.064;2022-07-06T06:51:48;20.00;80.20
12053;DHT22;6087;48.982;12.064;2022-07-06T06:54:15;20.10;79.90
12053;DHT22;6087;48.982;12.064;2022-07-06T06:56:42;20.10;79.50
12053;DHT22;6087;48.982;12.064;2022-07-06T06:59:09;20.10;79.30
12053;DHT22;6087;48.982;12.064;2022-07-06T07:01:37;20.20;79.60
12053;DHT22;6087;48.982;12.064;2022-07-06T07:04:04;20.20;79.50
12053;DHT22;6087;48.982;12.064;2022-07-06T07:06:31;20.20;79.40
12053;DHT22;6087;48.982;12.064;2022-07-06T07:08:58;20.30;79.70
12053;DHT22;6087;48.982;12.064;2022-07-06T07:11:25;20.30;79.70
12053;DHT22;6087;48.982;12.064;2022-07-06T07:13:52;20.30;79.20
12053;DHT22;6087;48.982;12.064;2022-07-06T07:16:19;20.40;79.60
12053;DHT22;6087;48.982;12.064;2022-07-06T07:18:47;20.40;79.00
12053;DHT22;6087;48.982;12.064;2022-07-06T07:21:14;20.40;78.90
12053;DHT22;6087;48.982;12.064;2022-07-06T07:23:41;20.50;80.20
12053;DHT22;6087;48.982;12.064;2022-07-06T07:26:08;20.50;79.40
12053;DHT22;6087;48.982;12.064;2022-07-06T07:28:35;20.60;79.40
12053;DHT22;6087;48.982;12.064;2022-07-06T07:31:02;20.60;78.90
12053;DHT22;6087;48.982;12.064;2022-07-06T07:33:29;20.60;79.60
12053;DHT22;6087;48.982;12.064;2022-07-06T07:35:57;20.70;80.50
12053;DHT22;6087;48.982;12.064;2022-07-06T07:38:24;20.70;80.50
12053;DHT22;6087;48.982;12.064;2022-07-06T07:40:53;20.70;80.60
12053;DHT22;6087;48.982;12.064;2022-07-06T07:43:20;20.80;79.20
12053;DHT22;6087;48.982;12.064;2022-07-06T07:45:48;20.80;79.50
12053;DHT22;6087;48.982;12.064;2022-07-06T07:48:15;20.90;80.10
12053;DHT22;6087;48.982;12.064;2022-07-06T07:50:42;20.90;79.00
12053;DHT22;6087;48.982;12.064;2022-07-06T07:53:10;20.90;79.80
12053;DHT22;6087;48.982;12.064;2022-07-06T07:55:37;21.00;79.20
12053;DHT22;6087;48.982;12.064;2022-07-06T07:58:04;21.00;79.40
12053;DHT22;6087;48.982;12.064;2022-07-06T08:00:31;21.10;80.20
12053;DHT22;6087;48.982;12.064;2022-07-06T08:02:59;21.10;78.30
12053;DHT22;6087;48.982;12.064;2022-07-06T08:05:26;21.10;78.20
12053;DHT22;6087;48.982;12.064;2022-07-06T08:07:52;21.10;79.00
12053;DHT22;6087;48.982;12.064;2022-07-06T08:10:21;21.20;79.00
12053;DHT22;6087;48.982;12.064;2022-07-06T08:12:48;21.20;79.60
12053;DHT22;6087;48.982;12.064;2022-07-06T08:15:15;21.30;76.60
12053;DHT22;6087;48.982;12.064;2022-07-06T08:17:41;21.30;75.60
12053;DHT22;6087;48.982;12.064;2022-07-06T08:20:09;21.30;76.70
12053;DHT22;6087;48.982;12.064;2022-07-06T08:22:36;21.30;77.10
12053;DHT22;6087;48.982;12.064;2022-07-06T08:25:03;21.40;77.50
12053;DHT22;6087;48.982;12.064;2022-07-06T08:27:32;21.40;76.60
12053;DHT22;6087;48.982;12.064;2022-07-06T08:29:59;21.40;76.50
12053;DHT22;6087;48.982;12.064;2022-07-06T08:32:26;21.50;76.30
12053;DHT22;6087;48.982;12.064;2022-07-06T08:34:53;21.50;74.60
12053;DHT22;6087;48.982;12.064;2022-07-06T08:37:20;21.50;73.40
12053;DHT22;6087;48.982;12.064;2022-07-06T08:39:47;21.60;74.70
12053;DHT22;6087;48.982;12.064;2022-07-06T08:42:16;21.70;75.00
12053;DHT22;6087;48.982;12.064;2022-07-06T08:44:44;21.80;74.50
12053;DHT22;6087;48.982;12.064;2022-07-06T08:47:12;21.80;74.40
12053;DHT22;6087;48.982;12.064;2022-07-06T08:49:40;21.80;73.80
12053;DHT22;6087;48.982;12.064;2022-07-06T08:52:08;21.90;73.50
12053;DHT22;6087;48.982;12.064;2022-07-06T08:54:37;21.90;72.20
12053;DHT22;6087;48.982;12.064;2022-07-06T08:57:05;21.90;71.70
12053;DHT22;6087;48.982;12.064;2022-07-06T08:59:32;22.00;72.90
12053;DHT22;6087;48.982;12.064;2022-07-06T09:02:03;22.10;72.20
12053;DHT22;6087;48.982;12.064;2022-07-06T09:04:30;22.10;71.50
12053;DHT22;6087;48.982;12.064;2022-07-06T09:06:59;22.10;69.00
12053;DHT22;6087;48.982;12.064;2022-07-06T09:09:26;22.20;70.40
12053;DHT22;6087;48.982;12.064;2022-07-06T09:11:56;22.20;70.60
12053;DHT22;6087;48.982;12.064;2022-07-06T09:14:24;22.30;70.10
12053;DHT22;6087;48.982;12.064;2022-07-06T09:16:52;22.30;66.40
12053;DHT22;6087;48.982;12.064;2022-07-06T09:19:28;22.40;68.70
12053;DHT22;6087;48.982;12.064;2022-07-06T09:21:55;22.40;69.70
12053;DHT22;6087;48.982;12.064;2022-07-06T09:24:22;22.50;68.20
12053;DHT22;6087;48.982;12.064;2022-07-06T09:26:49;22.60;68.90
12053;DHT22;6087;48.982;12.064;2022-07-06T09:29:16;22.60;66.60
12053;DHT22;6087;48.982;12.064;2022-07-06T09:31:55;22.70;67.50
12053;DHT22;6087;48.982;12.064;2022-07-06T09:34:23;22.70;67.30
12053;DHT22;6087;48.982;12.064;2022-07-06T09:36:51;22.60;66.50
12053;DHT22;6087;48.982;12.064;2022-07-06T09:39:22;22.60;66.70
12053;DHT22;6087;48.982;12.064;2022-07-06T09:41:51;22.60;68.00
12053;DHT22;6087;48.982;12.064;2022-07-06T09:44:22;22.70;67.20
12053;DHT22;6087;48.982;12.064;2022-07-06T09:46:51;22.70;67.50
12053;DHT22;6087;48.982;12.064;2022-07-06T09:49:19;22.70;65.30
12053;DHT22;6087;48.982;12.064;2022-07-06T09:51:46;22.70;64.30
12053;DHT22;6087;48.982;12.064;2022-07-06T09:54:15;22.70;64.30
12053;DHT22;6087;48.982;12.064;2022-07-06T09:56:43;22.80;63.70
12053;DHT22;6087;48.982;12.064;2022-07-06T09:59:14;22.80;62.30
12053;DHT22;6087;48.982;12.064;2022-07-06T10:01:42;22.90;62.90
12053;DHT22;6087;48.982;12.064;2022-07-06T10:04:12;22.90;63.90
12053;DHT22;6087;48.982;12.064;2022-07-06T10:06:39;23.00;63.70
12053;DHT22;6087;48.982;12.064;2022-07-06T10:09:08;23.00;62.20
12053;DHT22;6087;48.982;12.064;2022-07-06T10:11:39;22.90;58.00
12053;DHT22;6087;48.982;12.064;2022-07-06T10:14:07;22.90;56.70
12053;DHT22;6087;48.982;12.064;2022-07-06T10:16:36;23.00;55.40
12053;DHT22;6087;48.982;12.064;2022-07-06T10:19:05;23.00;54.50
12053;DHT22;6087;48.982;12.064;2022-07-06T10:21:35;23.20;51.50
12053;DHT22;6087;48.982;12.064;2022-07-06T10:24:03;23.30;53.60
12053;DHT22;6087;48.982;12.064;2022-07-06T10:26:31;23.10;52.40
12053;DHT22;6087;48.982;12.064;2022-07-06T10:29:00;23.10;54.10
12053;DHT22;6087;48.982;12.064;2022-07-06T10:31:29;23.20;53.40
12053;DHT22;6087;48.982;12.064;2022-07-06T10:33:57;23.30;53.60
12053;DHT22;6087;48.982;12.064;2022-07-06T10:36:25;23.40;54.50
12053;DHT22;6087;48.982;12.064;2022-07-06T10:38:53;23.50;52.50
12053;DHT22;6087;48.982;12.064;2022-07-06T10:41:31;23.50;51.80
12053;DHT22;6087;48.982;12.064;2022-07-06T10:43:57;23.60;50.20
12053;DHT22;6087;48.982;12.064;2022-07-06T10:46:29;23.60;50.40
12053;DHT22;6087;48.982;12.064;2022-07-06T10:49:15;23.70;49.50
12053;DHT22;6087;48.982;12.064;2022-07-06T10:51:42;23.70;49.30
12053;DHT22;6087;48.982;12.064;2022-07-06T10:54:09;23.80;49.50
12053;DHT22;6087;48.982;12.064;2022-07-06T10:56:38;23.90;50.60
12053;DHT22;6087;48.982;12.064;2022-07-06T10:59:09;23.90;49.90
12053;DHT22;6087;48.982;12.064;2022-07-06T11:01:38;23.80;49.50
12053;DHT22;6087;48.982;12.064;2022-07-06T11:04:07;23.80;50.30
12053;DHT22;6087;48.982;12.064;2022-07-06T11:06:35;23.80;47.90
12053;DHT22;6087;48.982;12.064;2022-07-06T11:09:03;23.90;49.50
12053;DHT22;6087;48.982;12.064;2022-07-06T11:11:41;24.10;49.10
12053;DHT22;6087;48.982;12.064;2022-07-06T11:14:12;24.00;49.30
12053;DHT22;6087;48.982;12.064;2022-07-06T11:17:00;24.20;49.60
12053;DHT22;6087;48.982;12.064;2022-07-06T11:19:28;24.40;45.40
12053;DHT22;6087;48.982;12.064;2022-07-06T11:21:56;24.50;46.20
12053;DHT22;6087;48.982;12.064;2022-07-06T11:24:25;24.60;46.70
12053;DHT22;6087;48.982;12.064;2022-07-06T11:26:53;24.60;46.50
12053;DHT22;6087;48.982;12.064;2022-07-06T11:29:23;24.70;47.30
12053;DHT22;6087;48.982;12.064;2022-07-06T11:31:53;24.60;46.80
12053;DHT22;6087;48.982;12.064;2022-07-06T11:34:22;24.70;45.20
12053;DHT22;6087;48.982;12.064;2022-07-06T11:36:49;24.70;41.90
12053;DHT22;6087;48.982;12.064;2022-07-06T11:39:20;24.70;43.90
12053;DHT22;6087;48.982;12.064;2022-07-06T11:41:47;24.90;45.50
12053;DHT22;6087;48.982;12.064;2022-07-06T11:44:14;25.20;46.50
12053;DHT22;6087;48.982;12.064;2022-07-06T11:46:41;25.20;45.20
12053;DHT22;6087;48.982;12.064;2022-07-06T11:49:09;25.30;45.10
12053;DHT22;6087;48.982;12.064;2022-07-06T11:51:37;25.20;44.30
12053;DHT22;6087;48.982;12.064;2022-07-06T11:54:08;25.20;43.00
12053;DHT22;6087;48.982;12.064;2022-07-06T11:56:36;25.30;43.40
12053;DHT22;6087;48.982;12.064;2022-07-06T11:59:03;25.40;41.50
12053;DHT22;6087;48.982;12.064;2022-07-06T12:01:31;25.30;40.30
12053;DHT22;6087;48.982;12.064;2022-07-06T12:03:58;25.50;43.30
12053;DHT22;6087;48.982;12.064;2022-07-06T12:06:28;25.70;42.40
12053;DHT22;6087;48.982;12.064;2022-07-06T12:08:56;25.70;40.80
12053;DHT22;6087;48.982;12.064;2022-07-06T12:11:25;25.60;38.00
12053;DHT22;6087;48.982;12.064;2022-07-06T12:13:53;25.40;39.20
12053;DHT22;6087;48.982;12.064;2022-07-06T12:16:21;25.30;39.00
12053;DHT22;6087;48.982;12.064;2022-07-06T12:18:50;25.50;39.60
12053;DHT22;6087;48.982;12.064;2022-07-06T12:21:18;25.70;41.90
12053;DHT22;6087;48.982;12.064;2022-07-06T12:23:50;25.90;38.30
12053;DHT22;6087;48.982;12.064;2022-07-06T12:26:22;25.90;38.10
12053;DHT22;6087;48.982;12.064;2022-07-06T12:28:59;25.90;36.50
12053;DHT22;6087;48.982;12.064;2022-07-06T12:31:34;25.80;37.20
12053;DHT22;6087;48.982;12.064;2022-07-06T12:34:01;25.90;39.10
12053;DHT22;6087;48.982;12.064;2022-07-06T12:36:29;26.00;38.30
12053;DHT22;6087;48.982;12.064;2022-07-06T12:38:57;26.00;37.40
12053;DHT22;6087;48.982;12.064;2022-07-06T12:41:29;25.90;38.50
12053;DHT22;6087;48.982;12.064;2022-07-06T12:44:02;26.00;38.10
12053;DHT22;6087;48.982;12.064;2022-07-06T12:46:31;26.10;38.60
12053;DHT22;6087;48.982;12.064;2022-07-06T12:48:59;26.10;37.40
12053;DHT22;6087;48.982;12.064;2022-07-06T12:51:26;26.00;37.60
12053;DHT22;6087;48.982;12.064;2022-07-06T12:54:13;26.00;37.10
12053;DHT22;6087;48.982;12.064;2022-07-06T12:57:07;25.90;35.80
12053;DHT22;6087;48.982;12.064;2022-07-06T12:59:37;25.70;35.80
12053;DHT22;6087;48.982;12.064;2022-07-06T13:02:05;25.70;38.30
12053;DHT22;6087;48.982;12.064;2022-07-06T13:04:34;25.90;38.30
12053;DHT22;6087;48.982;12.064;2022-07-06T13:07:02;26.00;40.10
12053;DHT22;6087;48.982;12.064;2022-07-06T13:09:30;26.20;39.30
12053;DHT22;6087;48.982;12.064;2022-07-06T13:11:57;26.30;38.00
12053;DHT22;6087;48.982;12.064;2022-07-06T13:14:24;26.20;33.80
12053;DHT22;6087;48.982;12.064;2022-07-06T13:16:51;26.20;34.80
12053;DHT22;6087;48.982;12.064;2022-07-06T13:19:19;26.20;35.20
12053;DHT22;6087;48.982;12.064;2022-07-06T13:21:46;26.40;38.30
12053;DHT22;6087;48.982;12.064;2022-07-06T13:24:13;26.50;36.40
12053;DHT22;6087;48.982;12.064;2022-07-06T13:26:41;26.60;35.70
12053;DHT22;6087;48.982;12.064;2022-07-06T13:29:09;26.70;37.60
12053;DHT22;6087;48.982;12.064;2022-07-06T13:31:37;26.90;36.60
12053;DHT22;6087;48.982;12.064;2022-07-06T13:34:05;26.80;32.80
12053;DHT22;6087;48.982;12.064;2022-07-06T13:36:32;26.70;34.80
12053;DHT22;6087;48.982;12.064;2022-07-06T13:38:59;26.50;34.20
12053;DHT22;6087;48.982;12.064;2022-07-06T13:41:26;26.40;34.70
12053;DHT22;6087;48.982;12.064;2022-07-06T13:43:55;26.30;34.70
12053;DHT22;6087;48.982;12.064;2022-07-06T13:46:22;26.30;36.00
12053;DHT22;6087;48.982;12.064;2022-07-06T13:48:49;26.40;35.30
12053;DHT22;6087;48.982;12.064;2022-07-06T13:51:17;26.50;36.30
12053;DHT22;6087;48.982;12.064;2022-07-06T13:53:44;26.40;35.50
12053;DHT22;6087;48.982;12.064;2022-07-06T13:56:11;26.30;35.50
12053;DHT22;6087;48.982;12.064;2022-07-06T13:58:38;26.30;35.30
12053;DHT22;6087;48.982;12.064;2022-07-06T14:01:07;26.40;35.30
12053;DHT22;6087;48.982;12.064;2022-07-06T14:03:33;26.50;36.50
12053;DHT22;6087;48.982;12.064;2022-07-06T14:06:03;26.60;35.20
12053;DHT22;6087;48.982;12.064;2022-07-06T14:08:30;26.50;34.40
12053;DHT22;6087;48.982;12.064;2022-07-06T14:10:57;26.40;33.50
12053;DHT22;6087;48.982;12.064;2022-07-06T14:13:23;26.30;34.20
12053;DHT22;6087;48.982;12.064;2022-07-06T14:15:51;26.30;34.00
12053;DHT22;6087;48.982;12.064;2022-07-06T14:18:19;26.20;33.10
12053;DHT22;6087;48.982;12.064;2022-07-06T14:20:47;26.20;33.60
12053;DHT22;6087;48.982;12.064;2022-07-06T14:23:15;26.20;33.10
12053;DHT22;6087;48.982;12.064;2022-07-06T14:25:43;26.20;34.40
12053;DHT22;6087;48.982;12.064;2022-07-06T14:28:10;26.30;36.10
12053;DHT22;6087;48.982;12.064;2022-07-06T14:30:39;26.40;33.30
12053;DHT22;6087;48.982;12.064;2022-07-06T14:33:07;26.50;34.20
12053;DHT22;6087;48.982;12.064;2022-07-06T14:35:37;26.50;33.00
12053;DHT22;6087;48.982;12.064;2022-07-06T14:38:05;26.40;31.10
12053;DHT22;6087;48.982;12.064;2022-07-06T14:40:33;26.20;32.20
12053;DHT22;6087;48.982;12.064;2022-07-06T14:43:01;26.30;33.40
12053;DHT22;6087;48.982;12.064;2022-07-06T14:45:28;26.20;32.30
12053;DHT22;6087;48.982;12.064;2022-07-06T14:47:55;26.20;33.60
12053;DHT22;6087;48.982;12.064;2022-07-06T14:50:23;26.10;33.90
12053;DHT22;6087;48.982;12.064;2022-07-06T14:52:51;26.20;34.20
12053;DHT22;6087;48.982;12.064;2022-07-06T14:55:19;26.30;34.40
12053;DHT22;6087;48.982;12.064;2022-07-06T14:57:46;26.30;34.00
12053;DHT22;6087;48.982;12.064;2022-07-06T15:00:14;26.40;33.50
12053;DHT22;6087;48.982;12.064;2022-07-06T15:02:41;26.40;34.20
12053;DHT22;6087;48.982;12.064;2022-07-06T15:05:09;26.50;33.70
12053;DHT22;6087;48.982;12.064;2022-07-06T15:07:36;26.20;33.30
12053;DHT22;6087;48.982;12.064;2022-07-06T15:10:06;26.00;31.40
12053;DHT22;6087;48.982;12.064;2022-07-06T15:12:34;25.90;32.70
12053;DHT22;6087;48.982;12.064;2022-07-06T15:15:00;26.00;33.70
12053;DHT22;6087;48.982;12.064;2022-07-06T15:17:27;26.00;32.60
12053;DHT22;6087;48.982;12.064;2022-07-06T15:19:57;26.00;32.50
12053;DHT22;6087;48.982;12.064;2022-07-06T15:22:24;25.90;31.50
12053;DHT22;6087;48.982;12.064;2022-07-06T15:24:51;25.50;31.80
12053;DHT22;6087;48.982;12.064;2022-07-06T15:27:19;25.60;33.30
12053;DHT22;6087;48.982;12.064;2022-07-06T15:29:46;25.60;33.60
12053;DHT22;6087;48.982;12.064;2022-07-06T15:32:13;25.60;33.70
12053;DHT22;6087;48.982;12.064;2022-07-06T15:34:40;25.60;31.80
12053;DHT22;6087;48.982;12.064;2022-07-06T15:37:07;25.50;32.40
12053;DHT22;6087;48.982;12.064;2022-07-06T15:39:34;25.40;31.30